createdAt,value
2022-11-05T00:03:20.170Z,6.665551839464883
2022-11-05T00:11:00.440Z,4.933110367892977
2022-11-05T00:18:23.100Z,3.612040133779264
2022-11-05T00:26:23.898Z,2.511705685618729
2022-11-05T00:34:02.149Z,3.648829431438127
2022-11-05T00:41:34.491Z,3.6153846153846154
2022-11-05T00:55:41.759Z,2.725752508361204
2022-11-05T01:07:38.155Z,2.511705685618729
2022-11-05T01:15:13.086Z,3.130434782608696
2022-11-05T01:25:41.213Z,2.4381270903010033
2022-11-05T01:33:33.034Z,2.0535117056856187
2022-11-05T01:43:17.676Z,1.6688963210702341
2022-11-05T01:51:33.970Z,4.076923076923077
2022-11-05T02:03:41.752Z,3.367892976588629
2022-11-05T02:11:29.026Z,2.3846153846153846
2022-11-05T02:19:35.679Z,4.160535117056856
2022-11-05T02:27:47.568Z,2.1872909698996654
2022-11-05T02:43:58.918Z,2.1137123745819397
2022-11-05T02:52:34.180Z,2.6755852842809364
2022-11-05T03:02:19.857Z,3.3946488294314383
2022-11-05T03:16:58.549Z,2.0468227424749164
2022-11-05T03:24:56.406Z,2.548494983277592
2022-11-05T03:33:25.186Z,2.6755852842809364
2022-11-05T03:41:18.937Z,2.297658862876254
2022-11-05T03:49:06.741Z,2.4949832775919734
2022-11-05T03:56:54.067Z,2.7525083612040135
2022-11-05T04:04:42.879Z,2.5585284280936453
2022-11-05T04:12:36.557Z,2.197324414715719
2022-11-05T04:20:24.061Z,1.508361204013378
2022-11-05T04:30:36.146Z,2.4347826086956523
2022-11-05T04:52:59.130Z,2.451505016722408
2022-11-05T05:01:02.786Z,2.0903010033444818
2022-11-05T05:08:58.501Z,2.157190635451505
2022-11-05T05:17:08.633Z,1.5752508361204014
2022-11-05T05:30:56.141Z,3.42809364548495
2022-11-05T05:55:23.505Z,2.3745819397993313
2022-11-05T06:08:27.396Z,2.4548494983277593
2022-11-05T06:16:08.198Z,2.096989966555184
2022-11-05T06:28:17.133Z,1.5719063545150502
2022-11-05T06:36:17.222Z,2.347826086956522
2022-11-05T06:43:50.913Z,2.297658862876254
2022-11-05T06:53:08.351Z,2.7324414715719065
2022-11-05T07:09:33.644Z,2.351170568561873
2022-11-05T07:17:56.214Z,5.595317725752508
2022-11-05T07:26:21.345Z,3.879598662207358
2022-11-05T07:34:28.992Z,4.036789297658863
2022-11-05T07:48:06.672Z,3.551839464882943
2022-11-05T07:57:15.202Z,3.294314381270903
2022-11-05T08:05:41.077Z,3.0869565217391304
2022-11-05T08:13:42.971Z,4.1806020066889635
2022-11-05T08:23:16.377Z,2.076923076923077
2022-11-05T08:36:23.476Z,2.531772575250836
2022-11-05T08:44:52.593Z,3.180602006688963
2022-11-05T08:52:54.431Z,2.709030100334448
2022-11-05T09:01:01.797Z,1.939799331103679
2022-11-05T09:08:34.961Z,2.5183946488294313
2022-11-05T09:15:53.662Z,1.4046822742474916
2022-11-05T09:23:24.829Z,1.588628762541806
2022-11-05T09:30:46.082Z,2.448160535117057
2022-11-05T09:38:40.496Z,1.4247491638795986
2022-11-05T09:46:22.853Z,1.8729096989966556
2022-11-05T09:53:45.794Z,1.9966555183946488
2022-11-05T10:01:14.173Z,2.237458193979933
2022-11-05T10:08:50.536Z,2.05685618729097
2022-11-05T10:16:23.849Z,1.5418060200668897
2022-11-05T10:36:39.776Z,2.8662207357859533
2022-11-05T10:49:25.417Z,2.5250836120401337
2022-11-05T10:56:58.467Z,1.6889632107023411
2022-11-05T11:04:06.067Z,2.347826086956522
2022-11-05T11:12:08.808Z,2.508361204013378
2022-11-05T11:23:21.716Z,1.7525083612040133
2022-11-05T11:34:53.439Z,1.6387959866220736
2022-11-05T11:51:26.868Z,2.411371237458194
2022-11-05T12:09:38.392Z,2.0234113712374584
2022-11-05T12:26:48.984Z,1.4448160535117056
2022-11-05T12:38:58.463Z,1.3110367892976589
2022-11-05T12:55:59.581Z,2.301003344481605
2022-11-05T13:31:47.678Z,1.120401337792642
2022-11-05T13:47:52.909Z,2.0635451505016724
2022-11-05T13:57:18.853Z,1.3076923076923077
2022-11-05T14:08:03.146Z,2.3645484949832776
2022-11-05T14:17:53.363Z,1.605351170568562
2022-11-05T14:28:16.651Z,1.8494983277591974
2022-11-05T14:37:44.065Z,2.849498327759197
2022-11-05T14:49:15.564Z,3.0468227424749164
2022-11-05T14:57:53.318Z,2.879598662207358
2022-11-05T15:05:54.688Z,2.7558528428093645
2022-11-05T15:14:01.625Z,4.702341137123746
2022-11-05T15:22:34.526Z,3.6421404682274248
2022-11-05T15:37:57.294Z,4.137123745819398
2022-11-05T15:45:38.164Z,2.548494983277592
2022-11-05T15:54:28.566Z,2.9565217391304346
2022-11-05T16:02:36.152Z,2.5953177257525084
2022-11-05T16:14:13.248Z,3.5183946488294313
2022-11-05T16:32:07.165Z,2.919732441471572
2022-11-05T16:40:27.103Z,2.1471571906354514
2022-11-05T17:10:19.941Z,2.8260869565217392
2022-11-05T17:28:43.045Z,5.040133779264214
2022-11-05T17:43:41.047Z,7.043478260869565
2022-11-05T17:53:30.940Z,5.147157190635451
2022-11-05T18:19:16.058Z,12.183946488294314
2022-11-05T18:28:00.226Z,5.294314381270903
2022-11-05T18:40:03.143Z,3.8862876254180603
2022-11-05T18:48:55.790Z,4.712374581939799
2022-11-05T18:56:52.986Z,2.237458193979933
2022-11-05T19:05:30.535Z,6.408026755852843
2022-11-05T19:15:05.105Z,22.137123745819398
2022-11-05T19:32:56.981Z,50.25418060200669
2022-11-05T19:44:46.190Z,68.72575250836121
2022-11-05T19:55:41.307Z,60.180602006688964
2022-11-05T20:23:00.036Z,6.408026755852843
2022-11-05T20:33:26.712Z,5.511705685618729
2022-11-05T20:42:47.486Z,4.4280936454849495
2022-11-05T21:00:11.572Z,5.448160535117057
2022-11-05T21:12:41.122Z,11.324414715719064
2022-11-05T21:21:41.573Z,8.006688963210703
2022-11-05T21:33:30.959Z,6.678929765886288
2022-11-05T21:42:07.820Z,5.421404682274248
2022-11-05T21:51:12.463Z,5.525083612040134
2022-11-05T21:59:21.433Z,4.210702341137123
2022-11-05T22:09:36.186Z,4.498327759197324
2022-11-05T22:18:43.383Z,5.25752508361204
2022-11-05T22:27:47.811Z,3.060200668896321
2022-11-05T22:38:21.887Z,3.682274247491639
2022-11-05T22:47:09.260Z,3.5016722408026757
2022-11-05T22:55:24.072Z,2.7324414715719065
2022-11-05T23:11:11.527Z,4.023411371237458
2022-11-05T23:24:35.610Z,3.4180602006688963
2022-11-05T23:32:47.903Z,2.1939799331103678
2022-11-05T23:44:30.874Z,2.391304347826087
2022-11-05T23:56:13.071Z,2.0033444816053514
